Details From LFKJ - Campo Dell Oro
To LICJ - Palermo
Flight Number -
Tags Standard Generated
Created
Modified
Stats Distance 308 nm / 571 km
Max Altitude 32,000 ft / 9,754 m
Waypoints 13
Social Downloads 2
Likes 0
Share VATSIM

Download

Looking for another format? Having issues loading an existing format? Contact us
Advertisement - Login to hide

Notes

Departing runway 200 LFKJ. Arriving runway 6 LICJ. Advanced Generation Settings: Turn accuracy: 20 Altitude: 32000ft Smoothed angles: True Runway changes allowed: True Calculation order: Arrival --> Departure --> Intermediates Multipass intermediates: True

Route

LFKJ +41.85_+008.75 +41.79_+008.75 +41.73_+008.77 +41.69_+008.81 +40.68_+010.02 +39.66_+011.20 +38.24_+012.76 +38.19_+012.80 +38.16_+012.86 +38.14_+012.93 +38.15_+013.00 LICJ

ID Type Via Altitude (ft/m) Position (lat/lon) Dist (leg/tot) Name
O LFKJ APT - 0 / 0 41.91176 / 8.79494 - / 0 nm
+41.85_+008.75 LATLON - 140 / 43 41.84611 / 8.75406 4 / 4 nm
+41.79_+008.75 LATLON - 470 / 143 41.78842 / 8.74744 3 / 7 nm
+41.73_+008.77 LATLON - 980 / 299 41.73253 / 8.76767 3 / 11 nm
+41.69_+008.81 LATLON - 32,000 / 9,754 41.68516 / 8.81226 3 / 14 nm
+40.68_+010.02 LATLON - 32,000 / 9,754 40.67792 / 10.02346 81 / 96 nm
+39.66_+011.20 LATLON - 32,000 / 9,754 39.65962 / 11.19868 81 / 177 nm
+38.24_+012.76 LATLON - 2,530 / 771 38.24254 / 12.75870 112 / 289 nm
+38.19_+012.80 LATLON - 1,670 / 509 38.19407 / 12.79901 3 / 293 nm
+38.16_+012.86 LATLON - 980 / 299 38.15937 / 12.85796 3 / 296 nm
+38.14_+012.93 LATLON - 470 / 143 38.14262 / 12.92843 3 / 300 nm
+38.15_+013.00 LATLON - 140 / 43 38.14583 / 13.00193 3 / 303 nm
O LICJ APT - 0 / 0 38.17431 / 13.08653 4 / 308 nm

Altitude Profile

Advertisement - Login to hide

Weather


0- 5 10 15 20 25 30 35+ Temperature / °C

Clouds and Precipitation
Forecast for 2018-12-18 12:00 UTC. Updated 5 hours ago

Ground ~20,000 ft ~40,000 ft Winds

LFKJ

Details ICAO LFKJ (AJA)
Name Napoleon Bonaparte
Region France
Timezone Europe/Paris (UTC+1.0)
Stats Elevation 19 ft / 6 m (AMSL)
Location 41.921700° 8.801090°
Runways 1
Magnetic Variation 2.438° E

METAR

LFKJ 181430Z AUTO 00000KT CAVOK 15/07 Q1025 NOSIG

Decode

TAF

TAF LFKJ 181400Z 1815/1915 VRB05KT CAVOK= TAF LFMD 181400Z 1815/1915 VRB04KT 9999 FEW025 BECMG 1902/1904 BKN020 TEMPO 1904/1915 4000 RA OVC014

Decode

Departure Runways

ID Width Length Bearing (true/mag) Surface Threshold Overrun Markings Lighting
02 148 ft / 45 m 7,904 ft / 2,409 m 24.84° / 22.40° CONCRETE 0 ft / 0 m 161 ft / 49 m PREC-APP CENTERLINE EDGE THRESHOLD REIL-OMNI
20 148 ft / 45 m 7,904 ft / 2,409 m 204.85° / 202.41° CONCRETE 741 ft / 226 m 230 ft / 70 m PREC-APP CENTERLINE EDGE THRESHOLD REIL-OMNI

LICJ

Details ICAO LICJ (PMO)
Name Palermo Punta Raisi
Region Italy
Timezone Europe/Rome (UTC+1.0)
Stats Elevation 64 ft / 20 m (AMSL)
Location 38.177500° 13.097200°
Runways 2
Magnetic Variation 3.049° E

METAR

LICJ 181420Z 33014KT 9999 SCT045 14/08 Q1024

Decode

TAF

TAF LICJ 181100Z 1812/1912 34014KT 9999 SCT030 BECMG 1818/1820 VRB05KT

Decode

Destination Runways

ID Width Length Bearing (true/mag) Surface Threshold Overrun Markings Lighting
02 148 ft / 45 m 6,808 ft / 2,075 m 23.82° / 20.77° ASPHALT 0 ft / 0 m 0 ft / 0 m APP CENTERLINE EDGE THRESHOLD MALSF
07 197 ft / 60 m 10,904 ft / 3,324 m 66.85° / 63.80° ASPHALT 404 ft / 123 m 0 ft / 0 m PREC-APP CENTERLINE EDGE THRESHOLD MALSF
20 148 ft / 45 m 6,808 ft / 2,075 m 203.83° / 200.78° ASPHALT 0 ft / 0 m 0 ft / 0 m APP CENTERLINE EDGE THRESHOLD MALSF
25 197 ft / 60 m 10,904 ft / 3,324 m 246.87° / 243.82° ASPHALT 666 ft / 203 m 322 ft / 98 m PREC-APP CENTERLINE EDGE THRESHOLD MALSF

Approach Navaids

Runway Type Ident Frequency Range Bearing (true/mag) Slope Elevation
20 DME ITO 110.55 MHz 18 nm / 33 km - - 38 ft / 12 m (AMSL)
20 LOC-ILS ITO 110.55 MHz 18 nm / 33 km 203.92° / 200.87 ° - 64 ft / 20 m (AMSL)
20 GS ITO 110.55 MHz 10 nm / 19 km 203.92° / 200.87 ° 3.00° 64 ft / 20 m (AMSL)
25 DME RAI 109.50 MHz 18 nm / 33 km - - 65 ft / 20 m (AMSL)
25 MM MM - - 246.84° / 243.79 ° - 65 ft / 20 m (AMSL)
25 GS RAI 109.50 MHz 10 nm / 19 km 246.80° / 243.75 ° 3.00° 64 ft / 20 m (AMSL)
25 LOC-ILS RAI 109.50 MHz 18 nm / 33 km 246.80° / 243.75 ° - 64 ft / 20 m (AMSL)

Popular Alternatives